createdAt,value
2017-07-07T00:00:38.192Z,57.4
2017-07-07T00:01:40.249Z,57.5
2017-07-07T00:02:42.305Z,57.5
2017-07-07T00:03:44.374Z,57.5
2017-07-07T00:04:46.427Z,57.5
2017-07-07T00:05:48.493Z,57.6
2017-07-07T00:06:50.902Z,57.6
2017-07-07T00:07:52.961Z,57.7
2017-07-07T00:08:55.016Z,57.6
2017-07-07T00:09:57.077Z,57.8
2017-07-07T00:10:59.131Z,57.7
2017-07-07T00:12:01.202Z,57.7
2017-07-07T00:13:03.251Z,57.8
2017-07-07T00:14:05.315Z,57.7
2017-07-07T00:15:07.374Z,57.7
2017-07-07T00:16:09.431Z,57.6
2017-07-07T00:17:11.486Z,57.6
2017-07-07T00:18:13.547Z,57.6
2017-07-07T00:19:15.617Z,57.6
2017-07-07T00:20:17.670Z,57.6
2017-07-07T00:21:19.736Z,57.7
2017-07-07T00:22:22.166Z,57.5
2017-07-07T00:23:24.222Z,57.6
2017-07-07T00:24:26.281Z,57.7
2017-07-07T00:25:28.348Z,57.6
2017-07-07T00:26:30.409Z,57.6
2017-07-07T00:27:32.473Z,57.5
2017-07-07T00:28:34.524Z,57.6
2017-07-07T00:29:36.593Z,57.6
2017-07-07T00:30:38.647Z,57.6
2017-07-07T00:31:40.708Z,57.6
2017-07-07T00:32:42.774Z,57.6
2017-07-07T00:33:44.843Z,57.6
2017-07-07T00:34:47.271Z,57.5
2017-07-07T00:35:49.326Z,57.5
2017-07-07T00:36:51.736Z,57.6
2017-07-07T00:37:53.798Z,57.6
2017-07-07T00:38:55.849Z,57.6
2017-07-07T00:39:58.284Z,57.7
2017-07-07T00:41:00.767Z,57.7
2017-07-07T00:42:02.828Z,57.7
2017-07-07T00:43:04.881Z,57.7
2017-07-07T00:44:06.941Z,57.9
2017-07-07T00:45:09.002Z,57.7
2017-07-07T00:46:11.061Z,57.9
2017-07-07T00:47:13.121Z,57.8
2017-07-07T00:48:15.187Z,57.9
2017-07-07T00:49:17.239Z,57.8
2017-07-07T00:50:19.293Z,57.9
2017-07-07T00:51:21.356Z,57.9
2017-07-07T00:52:23.410Z,58
2017-07-07T00:53:25.465Z,58
2017-07-07T00:54:27.529Z,58
2017-07-07T00:55:29.932Z,58
2017-07-07T00:56:31.997Z,58
2017-07-07T00:57:34.054Z,58
2017-07-07T00:58:36.118Z,58
2017-07-07T00:59:38.185Z,58
2017-07-07T01:00:40.578Z,58
2017-07-07T01:01:43.022Z,58
2017-07-07T01:02:45.081Z,58
2017-07-07T01:03:47.146Z,58
2017-07-07T01:04:49.208Z,58
2017-07-07T01:05:51.264Z,58
2017-07-07T01:06:53.326Z,58
2017-07-07T01:07:55.378Z,58.1
2017-07-07T01:08:57.443Z,58.1
2017-07-07T01:09:59.514Z,58.1
2017-07-07T01:11:01.568Z,58.1
2017-07-07T01:12:03.623Z,58.2
2017-07-07T01:13:05.685Z,58
2017-07-07T01:14:07.740Z,58
2017-07-07T01:15:09.798Z,58
2017-07-07T01:16:11.862Z,58
2017-07-07T01:17:13.926Z,58
2017-07-07T01:18:15.993Z,58
2017-07-07T01:19:18.045Z,57.9
2017-07-07T01:20:20.104Z,57.9
2017-07-07T01:21:22.166Z,57.9
2017-07-07T01:22:24.231Z,58
2017-07-07T01:23:26.295Z,57.9
2017-07-07T01:24:28.696Z,58
2017-07-07T01:25:30.758Z,58
2017-07-07T01:26:32.809Z,57.9
2017-07-07T01:27:34.865Z,57.9
2017-07-07T01:28:36.947Z,57.9
2017-07-07T01:29:38.990Z,58
2017-07-07T01:30:41.053Z,58
2017-07-07T01:31:43.109Z,58
2017-07-07T01:32:45.164Z,58.1
2017-07-07T01:33:47.233Z,58.1
2017-07-07T01:34:49.289Z,58.1
2017-07-07T01:35:51.342Z,58.1
2017-07-07T01:36:53.760Z,58.1
2017-07-07T01:37:55.819Z,58.1
2017-07-07T01:38:57.884Z,58.1
2017-07-07T01:39:59.941Z,58.1
2017-07-07T01:41:02.007Z,58.1
2017-07-07T01:42:04.061Z,58.1
2017-07-07T01:43:06.110Z,58.1
2017-07-07T01:44:08.175Z,58.2
2017-07-07T01:45:10.239Z,58.1
2017-07-07T01:46:12.301Z,58.3
2017-07-07T01:47:14.355Z,58.2
2017-07-07T01:48:16.423Z,58.3
2017-07-07T01:49:18.472Z,58.3
2017-07-07T01:50:20.528Z,58.3
2017-07-07T01:51:22.583Z,58.3
2017-07-07T01:52:24.652Z,58.4
2017-07-07T01:53:26.713Z,58.4
2017-07-07T01:54:28.767Z,58.4
2017-07-07T01:55:30.831Z,58.4
2017-07-07T01:56:32.885Z,58.4
2017-07-07T01:57:34.947Z,58.4
2017-07-07T01:58:37.002Z,58.4
2017-07-07T01:59:39.072Z,58.4
2017-07-07T02:00:41.136Z,58.3
2017-07-07T02:01:43.182Z,58.2
2017-07-07T02:02:45.249Z,58.1
2017-07-07T02:03:47.312Z,58.2
2017-07-07T02:04:49.363Z,58.1
2017-07-07T02:05:51.427Z,58.1
2017-07-07T02:06:53.492Z,58.1
2017-07-07T02:07:55.551Z,58.2
2017-07-07T02:08:57.620Z,58.2
2017-07-07T02:09:59.673Z,58.2
2017-07-07T02:11:01.733Z,58.1
2017-07-07T02:12:03.789Z,58.2
2017-07-07T02:13:05.849Z,58.2
2017-07-07T02:14:08.555Z,58.2
2017-07-07T02:15:10.965Z,58.2
2017-07-07T02:16:13.014Z,58.2
2017-07-07T02:17:15.079Z,58.2
2017-07-07T02:18:17.135Z,58.2
2017-07-07T02:19:19.189Z,58.2
2017-07-07T02:20:21.599Z,58.2
2017-07-07T02:21:23.660Z,58.2
2017-07-07T02:22:25.720Z,58.3
2017-07-07T02:23:27.786Z,58.3
2017-07-07T02:24:29.837Z,58.3
2017-07-07T02:25:31.906Z,58.3
2017-07-07T02:26:33.962Z,58.4
2017-07-07T02:27:36.031Z,58.4
2017-07-07T02:28:38.087Z,58.4
2017-07-07T02:29:40.150Z,58.4
2017-07-07T02:30:42.210Z,58.4
2017-07-07T02:31:44.265Z,58.4
2017-07-07T02:32:46.326Z,58.5
2017-07-07T02:33:48.388Z,58.5
2017-07-07T02:34:50.442Z,58.5
2017-07-07T02:35:52.536Z,58.6
2017-07-07T02:36:54.676Z,58.6
2017-07-07T02:37:56.745Z,58.6
2017-07-07T02:38:58.802Z,58.6
2017-07-07T02:40:00.869Z,58.6
2017-07-07T02:41:02.930Z,58.6
2017-07-07T02:42:04.990Z,58.7
2017-07-07T02:43:07.050Z,58.6
2017-07-07T02:44:09.121Z,58.6
2017-07-07T02:45:11.182Z,58.6
2017-07-07T02:46:13.247Z,58.5
2017-07-07T02:47:15.305Z,58.6
2017-07-07T02:48:17.366Z,58.5
2017-07-07T02:49:19.418Z,58.6
2017-07-07T02:50:21.485Z,58.7
2017-07-07T02:51:23.552Z,58.6
2017-07-07T02:52:25.620Z,58.5
2017-07-07T02:53:27.673Z,58.4
2017-07-07T02:54:29.733Z,58.6
2017-07-07T02:55:31.848Z,58.5
2017-07-07T02:56:33.850Z,58.5
2017-07-07T02:57:35.914Z,58.6
2017-07-07T02:58:37.987Z,58.6
2017-07-07T02:59:40.055Z,58.6
2017-07-07T03:00:42.119Z,58.6
2017-07-07T03:01:44.175Z,58.6
2017-07-07T03:02:46.236Z,58.6
2017-07-07T03:03:48.309Z,58.6
2017-07-07T03:04:50.372Z,58.6
2017-07-07T03:05:52.432Z,58.6
2017-07-07T03:06:54.502Z,58.6
2017-07-07T03:07:56.551Z,58.6
2017-07-07T03:08:58.610Z,58.6
2017-07-07T03:10:01.021Z,58.6
2017-07-07T03:11:03.078Z,58.6
2017-07-07T03:12:05.146Z,58.6
2017-07-07T03:13:07.206Z,58.7
2017-07-07T03:14:09.267Z,58.7
2017-07-07T03:15:11.329Z,58.8
2017-07-07T03:16:13.384Z,58.8
2017-07-07T03:17:15.457Z,58.8
2017-07-07T03:18:17.524Z,58.8
2017-07-07T03:19:19.591Z,58.8
2017-07-07T03:20:21.651Z,58.8
2017-07-07T03:21:23.709Z,58.8
2017-07-07T03:22:25.778Z,58.8
2017-07-07T03:23:27.839Z,58.8
2017-07-07T03:24:29.892Z,58.8
2017-07-07T03:25:31.956Z,58.8
2017-07-07T03:26:34.025Z,58.8
2017-07-07T03:27:36.084Z,58.7
2017-07-07T03:28:38.155Z,58.8
2017-07-07T03:29:40.214Z,58.8
2017-07-07T03:30:42.272Z,58.8
2017-07-07T03:31:44.343Z,58.7
2017-07-07T03:32:46.403Z,58.7
2017-07-07T03:33:48.467Z,58.8
2017-07-07T03:34:50.533Z,58.8
2017-07-07T03:35:52.600Z,58.8
2017-07-07T03:36:55.065Z,58.8
2017-07-07T03:37:57.119Z,58.8
2017-07-07T03:38:59.195Z,58.8
2017-07-07T03:40:01.248Z,58.9
2017-07-07T03:41:03.308Z,58.8
2017-07-07T03:42:05.376Z,58.8
2017-07-07T03:43:07.435Z,58.9
2017-07-07T03:44:09.502Z,58.9
2017-07-07T03:45:11.564Z,58.8
2017-07-07T03:46:13.624Z,58.9
2017-07-07T03:47:15.695Z,58.9
2017-07-07T03:48:17.750Z,58.9
2017-07-07T03:49:19.817Z,58.9
2017-07-07T03:50:21.890Z,58.8
2017-07-07T03:51:23.948Z,58.9
2017-07-07T03:52:26.006Z,58.8
2017-07-07T03:53:28.064Z,58.8
2017-07-07T03:54:30.134Z,58.8
2017-07-07T03:55:32.198Z,58.8
2017-07-07T03:56:34.261Z,58.9
2017-07-07T03:57:36.329Z,58.9
2017-07-07T03:58:38.387Z,58.9
2017-07-07T03:59:40.446Z,58.9
2017-07-07T04:00:42.506Z,58.9
2017-07-07T04:01:44.564Z,58.9
2017-07-07T04:02:46.630Z,58.9
2017-07-07T04:03:48.699Z,58.9
2017-07-07T04:04:50.753Z,58.9
2017-07-07T04:05:52.823Z,58.8
2017-07-07T04:06:54.885Z,58.8
2017-07-07T04:07:56.945Z,58.8
2017-07-07T04:08:59.012Z,58.9
2017-07-07T04:10:01.066Z,58.9
2017-07-07T04:11:03.143Z,58.9
2017-07-07T04:12:05.198Z,58.9
2017-07-07T04:13:07.263Z,58.9
2017-07-07T04:14:09.328Z,58.9
2017-07-07T04:15:11.388Z,58.9
2017-07-07T04:16:13.456Z,58.9
2017-07-07T04:17:15.516Z,58.9
2017-07-07T04:18:17.585Z,59
2017-07-07T04:19:19.665Z,58.9
2017-07-07T04:20:21.714Z,59
2017-07-07T04:21:23.787Z,59
2017-07-07T04:22:25.845Z,59
2017-07-07T04:23:27.899Z,59
2017-07-07T04:24:29.965Z,59
2017-07-07T04:25:32.036Z,59
2017-07-07T04:26:34.100Z,59
2017-07-07T04:27:36.161Z,59
2017-07-07T04:28:38.216Z,59
2017-07-07T04:29:40.285Z,59.1
2017-07-07T04:30:42.348Z,59.1
2017-07-07T04:31:44.416Z,59.1
2017-07-07T04:32:46.486Z,59.1
2017-07-07T04:33:48.553Z,59.1
2017-07-07T04:34:50.611Z,59
2017-07-07T04:35:52.671Z,59.1
2017-07-07T04:36:54.789Z,58.9
2017-07-07T04:37:56.861Z,59.1
2017-07-07T04:38:58.927Z,58.9
2017-07-07T04:40:00.992Z,58.9
2017-07-07T04:41:03.062Z,59
2017-07-07T04:42:05.122Z,58.8
2017-07-07T04:43:07.196Z,58.9
2017-07-07T04:44:09.253Z,59
2017-07-07T04:45:11.313Z,59
2017-07-07T04:46:13.380Z,58.9
2017-07-07T04:47:15.449Z,59
2017-07-07T04:48:17.515Z,58.9
2017-07-07T04:49:19.577Z,59
2017-07-07T04:50:21.645Z,59.1
2017-07-07T04:51:23.711Z,59
2017-07-07T04:52:25.764Z,59
2017-07-07T04:53:28.074Z,59.1
2017-07-07T04:54:30.291Z,59.2
2017-07-07T04:55:32.347Z,59.2
2017-07-07T04:56:34.413Z,59.2
2017-07-07T04:57:36.811Z,59.2
2017-07-07T04:58:38.894Z,59.2
2017-07-07T04:59:40.958Z,59.1
2017-07-07T05:00:43.016Z,59.1
2017-07-07T05:01:45.089Z,59
2017-07-07T05:02:47.163Z,59
2017-07-07T05:03:49.212Z,59
2017-07-07T05:04:51.284Z,58.9
2017-07-07T05:05:53.352Z,58.9
2017-07-07T05:06:55.410Z,58.8
2017-07-07T05:07:57.480Z,58.8
2017-07-07T05:08:59.551Z,58.8
2017-07-07T05:10:01.611Z,58.8
2017-07-07T05:11:03.678Z,58.9
2017-07-07T05:12:05.789Z,58.8
2017-07-07T05:13:07.910Z,58.9
2017-07-07T05:14:09.982Z,58.9
2017-07-07T05:15:12.061Z,58.9
2017-07-07T05:16:14.149Z,58.8
2017-07-07T05:17:16.233Z,58.8
2017-07-07T05:18:18.355Z,58.8
2017-07-07T05:19:20.475Z,58.8
2017-07-07T05:20:22.567Z,58.8
2017-07-07T05:21:24.646Z,58.8
2017-07-07T05:22:26.730Z,58.8
2017-07-07T05:23:28.869Z,58.8
2017-07-07T05:24:31.363Z,58.9
2017-07-07T05:25:33.436Z,58.9
2017-07-07T05:26:35.499Z,58.8
2017-07-07T05:27:37.638Z,58.8
2017-07-07T05:28:39.694Z,58.8
2017-07-07T05:29:41.763Z,58.8
2017-07-07T05:30:43.887Z,58.9
2017-07-07T05:31:45.985Z,58.9
2017-07-07T05:32:48.135Z,58.9
2017-07-07T05:33:50.227Z,58.9
2017-07-07T05:34:52.342Z,58.9
2017-07-07T05:35:54.477Z,58.8
2017-07-07T05:36:56.608Z,58.8
2017-07-07T05:37:58.704Z,58.8
2017-07-07T05:39:00.866Z,58.8
2017-07-07T05:40:02.997Z,58.9
2017-07-07T05:41:05.094Z,58.9
2017-07-07T05:42:07.152Z,59.1
2017-07-07T05:43:09.243Z,59.1
2017-07-07T05:44:11.305Z,59.1
2017-07-07T05:45:13.370Z,59.2
2017-07-07T05:46:15.431Z,59.2
2017-07-07T05:47:17.486Z,59.4
2017-07-07T05:48:19.556Z,59.7
2017-07-07T05:49:21.607Z,59.8
2017-07-07T05:50:23.674Z,59.8
2017-07-07T05:51:25.749Z,60
2017-07-07T05:52:27.809Z,59.9
2017-07-07T05:53:29.865Z,59.8
2017-07-07T05:54:31.933Z,59.9
2017-07-07T05:55:33.998Z,59.9
2017-07-07T05:56:36.064Z,60
2017-07-07T05:57:38.120Z,60
2017-07-07T05:58:40.179Z,60
2017-07-07T05:59:42.588Z,60
2017-07-07T06:00:44.651Z,60.1
2017-07-07T06:01:47.073Z,60.2
2017-07-07T06:02:49.131Z,60.2
2017-07-07T06:03:51.197Z,60.3
2017-07-07T06:04:53.256Z,60.4
2017-07-07T06:05:55.319Z,60.3
2017-07-07T06:06:57.738Z,60.4
2017-07-07T06:07:59.814Z,60.4
2017-07-07T06:09:01.885Z,60.4
2017-07-07T06:10:03.946Z,60.4
2017-07-07T06:11:06.003Z,60.5
2017-07-07T06:12:08.074Z,60.5
2017-07-07T06:13:10.138Z,60.6
2017-07-07T06:14:12.198Z,60.5
2017-07-07T06:15:14.271Z,60.6
2017-07-07T06:16:16.336Z,60.6
2017-07-07T06:17:18.388Z,60.6
2017-07-07T06:18:20.454Z,60.8
2017-07-07T06:19:22.515Z,60.8
2017-07-07T06:20:24.585Z,60.8
2017-07-07T06:21:26.655Z,60.8
2017-07-07T06:22:28.714Z,60.7
2017-07-07T06:23:30.782Z,60.9
2017-07-07T06:24:33.180Z,60.8
2017-07-07T06:25:35.246Z,60.8
2017-07-07T06:26:37.313Z,60.8
2017-07-07T06:27:39.382Z,60.7
2017-07-07T06:28:41.466Z,60.8
2017-07-07T06:29:43.537Z,60.9
2017-07-07T06:30:46.301Z,60.8
2017-07-07T06:31:48.361Z,60.8
2017-07-07T06:32:50.420Z,60.7
2017-07-07T06:33:52.475Z,60.7
2017-07-07T06:34:54.542Z,60.9
2017-07-07T06:35:56.708Z,60.8
2017-07-07T06:36:58.880Z,60.7
2017-07-07T06:38:00.958Z,60.7
2017-07-07T06:39:03.023Z,60.9
2017-07-07T06:40:05.091Z,60.9
2017-07-07T06:41:07.166Z,60.8
2017-07-07T06:42:09.222Z,60.9
2017-07-07T06:43:11.312Z,60.9
2017-07-07T06:44:13.376Z,60.8
2017-07-07T06:45:15.434Z,60.7
2017-07-07T06:46:17.504Z,60.7
2017-07-07T06:47:19.571Z,60.8
2017-07-07T06:48:21.651Z,60.8
2017-07-07T06:49:23.716Z,60.9
2017-07-07T06:50:25.782Z,60.9
2017-07-07T06:51:27.859Z,60.9
2017-07-07T06:52:29.919Z,60.9
2017-07-07T06:53:31.978Z,60.9
2017-07-07T06:54:34.053Z,60.9
2017-07-07T06:55:36.122Z,60.9
2017-07-07T06:56:38.206Z,60.9
2017-07-07T06:57:40.268Z,61
2017-07-07T06:58:42.343Z,61.1
2017-07-07T06:59:44.414Z,61.2
2017-07-07T07:00:46.487Z,61.1
2017-07-07T07:01:48.560Z,61.1
2017-07-07T07:02:50.628Z,61.1
2017-07-07T07:03:52.695Z,61.1
2017-07-07T07:04:54.766Z,61.3
2017-07-07T07:05:56.829Z,61.4
2017-07-07T07:06:58.899Z,61.4
2017-07-07T07:08:01.307Z,61.5
2017-07-07T07:09:03.374Z,61.5
2017-07-07T07:10:05.451Z,61.5
2017-07-07T07:11:07.514Z,61.4
2017-07-07T07:12:09.580Z,61.2
2017-07-07T07:13:11.662Z,61.3
2017-07-07T07:14:13.727Z,61.3
2017-07-07T07:15:15.792Z,61.4
2017-07-07T07:16:18.207Z,61.5
2017-07-07T07:17:20.269Z,61.6
2017-07-07T07:18:22.329Z,61.7
2017-07-07T07:19:24.389Z,61.6
2017-07-07T07:20:26.461Z,61.7
2017-07-07T07:21:28.536Z,61.7
2017-07-07T07:22:30.600Z,61.7
2017-07-07T07:23:32.672Z,61.8
2017-07-07T07:24:34.737Z,61.7
2017-07-07T07:25:36.795Z,61.7
2017-07-07T07:26:38.864Z,61.7
2017-07-07T07:27:40.934Z,61.6
2017-07-07T07:28:43.006Z,61.6
2017-07-07T07:29:45.406Z,61.5
2017-07-07T07:30:47.467Z,61.5
2017-07-07T07:31:49.529Z,61.5
2017-07-07T07:32:51.601Z,61.4
2017-07-07T07:33:53.672Z,61.5
2017-07-07T07:34:55.733Z,61.6
2017-07-07T07:35:57.830Z,61.5
2017-07-07T07:36:59.956Z,61.7
2017-07-07T07:38:02.005Z,61.6
2017-07-07T07:39:04.083Z,61.7
2017-07-07T07:40:06.152Z,61.7
2017-07-07T07:41:08.228Z,61.7
2017-07-07T07:42:10.283Z,61.7
2017-07-07T07:43:12.343Z,61.6
2017-07-07T07:44:14.430Z,61.5
2017-07-07T07:45:16.483Z,61.4
2017-07-07T07:46:18.901Z,61.4
2017-07-07T07:47:20.983Z,61.2
2017-07-07T07:48:23.030Z,61.1
2017-07-07T07:49:25.109Z,61.2
2017-07-07T07:50:27.168Z,61.1
2017-07-07T07:51:29.233Z,61.2
2017-07-07T07:52:31.301Z,61.1
2017-07-07T07:53:33.361Z,61.3
2017-07-07T07:54:35.421Z,61.1
2017-07-07T07:55:37.503Z,61.1
2017-07-07T07:56:39.563Z,61.1
2017-07-07T07:57:41.634Z,61
2017-07-07T07:58:43.693Z,60.9
2017-07-07T07:59:45.762Z,60.9
2017-07-07T08:00:47.829Z,60.8
2017-07-07T08:01:49.894Z,60.7
2017-07-07T08:02:51.960Z,60.7
2017-07-07T08:03:54.027Z,60.8
2017-07-07T08:04:56.093Z,60.7
2017-07-07T08:05:58.162Z,60.6
2017-07-07T08:07:00.218Z,60.7
2017-07-07T08:08:02.288Z,60.8
2017-07-07T08:09:04.355Z,60.9
2017-07-07T08:10:06.423Z,61
2017-07-07T08:11:08.488Z,60.8
2017-07-07T08:12:10.900Z,60.8
2017-07-07T08:13:12.966Z,60.9
2017-07-07T08:14:15.031Z,61
2017-07-07T08:15:17.098Z,61
2017-07-07T08:16:19.170Z,61
2017-07-07T08:17:21.240Z,61.1
2017-07-07T08:18:23.295Z,61
2017-07-07T08:19:25.356Z,61.1
2017-07-07T08:20:27.427Z,61.1
2017-07-07T08:21:29.483Z,61.1
2017-07-07T08:22:31.548Z,61.2
2017-07-07T08:23:33.616Z,61.2
2017-07-07T08:24:35.676Z,61.2
2017-07-07T08:25:37.745Z,61.1
2017-07-07T08:26:39.812Z,61.1
2017-07-07T08:27:41.876Z,61.1
2017-07-07T08:28:43.937Z,61.1
2017-07-07T08:29:46.009Z,61
2017-07-07T08:30:48.066Z,61.1
2017-07-07T08:31:50.121Z,61.2
2017-07-07T08:32:52.191Z,61.2
2017-07-07T08:33:54.260Z,61.2
2017-07-07T08:34:56.323Z,61.3
2017-07-07T08:35:58.425Z,61.4
2017-07-07T08:37:00.514Z,61.4
2017-07-07T08:38:02.574Z,61.5
2017-07-07T08:39:04.640Z,61.4
2017-07-07T08:40:06.704Z,61.4
2017-07-07T08:41:08.775Z,61.5
2017-07-07T08:42:10.849Z,61.4
2017-07-07T08:43:13.284Z,61.3
2017-07-07T08:44:15.341Z,61.1
2017-07-07T08:45:17.423Z,61
2017-07-07T08:46:19.480Z,61.1
2017-07-07T08:47:21.551Z,61
2017-07-07T08:48:23.622Z,61
2017-07-07T08:49:25.684Z,61.1
2017-07-07T08:50:28.091Z,61.1
2017-07-07T08:51:30.153Z,61.2
2017-07-07T08:52:32.228Z,61.2
2017-07-07T08:53:34.297Z,61.2
2017-07-07T08:54:36.361Z,61.1
2017-07-07T08:55:38.433Z,61.1
2017-07-07T08:56:40.497Z,61
2017-07-07T08:57:42.566Z,61
2017-07-07T08:58:44.627Z,60.9
2017-07-07T08:59:46.695Z,60.9
2017-07-07T09:00:48.779Z,60.8
2017-07-07T09:01:50.838Z,60.7
2017-07-07T09:02:52.902Z,60.7
2017-07-07T09:03:54.964Z,60.7
2017-07-07T09:04:57.375Z,60.8
2017-07-07T09:05:59.439Z,60.8
2017-07-07T09:07:01.501Z,60.9
2017-07-07T09:08:03.571Z,60.8
2017-07-07T09:09:05.632Z,60.9
2017-07-07T09:10:07.705Z,60.9
2017-07-07T09:11:09.780Z,60.8
2017-07-07T09:12:11.836Z,61
2017-07-07T09:13:13.908Z,61
2017-07-07T09:14:15.978Z,60.9
2017-07-07T09:15:18.038Z,60.9
2017-07-07T09:16:20.116Z,61
2017-07-07T09:17:22.184Z,61.1
2017-07-07T09:18:24.253Z,61.1
2017-07-07T09:19:26.312Z,61.1
2017-07-07T09:20:28.373Z,61
2017-07-07T09:21:30.453Z,60.9
2017-07-07T09:22:32.513Z,60.9
2017-07-07T09:23:34.588Z,60.8
2017-07-07T09:24:36.652Z,60.9
2017-07-07T09:25:38.720Z,60.9
2017-07-07T09:26:40.787Z,61
2017-07-07T09:27:42.858Z,61.2
2017-07-07T09:28:44.933Z,61.4
2017-07-07T09:29:47.010Z,61.5
2017-07-07T09:30:49.073Z,61.5
2017-07-07T09:31:51.136Z,61.3
2017-07-07T09:32:53.203Z,61.2
2017-07-07T09:33:55.268Z,61.2
2017-07-07T09:34:57.679Z,61.1
2017-07-07T09:36:00.102Z,60.9
2017-07-07T09:37:02.230Z,60.9
2017-07-07T09:38:04.660Z,60.8
2017-07-07T09:39:06.727Z,60.8
2017-07-07T09:40:08.794Z,60.6
2017-07-07T09:41:10.873Z,60.3
2017-07-07T09:42:12.948Z,60.1
2017-07-07T09:43:15.006Z,60
2017-07-07T09:44:17.412Z,60
2017-07-07T09:45:19.485Z,60
2017-07-07T09:46:21.558Z,60
2017-07-07T09:47:23.621Z,60
2017-07-07T09:48:25.695Z,59.7
2017-07-07T09:49:27.763Z,59.4
2017-07-07T09:50:29.837Z,59.3
2017-07-07T09:51:31.904Z,59.2
2017-07-07T09:52:33.981Z,59.1
2017-07-07T09:53:36.054Z,58.7
2017-07-07T09:54:38.130Z,58.6
2017-07-07T09:55:40.199Z,58.6
2017-07-07T09:56:42.270Z,58.6
2017-07-07T09:57:44.346Z,58.4
2017-07-07T09:58:46.423Z,58.3
2017-07-07T09:59:48.486Z,58
2017-07-07T10:00:50.572Z,57.9
2017-07-07T10:01:52.639Z,57.7
2017-07-07T10:02:54.703Z,57.6
2017-07-07T10:03:56.778Z,57.6
2017-07-07T10:04:58.849Z,57.6
2017-07-07T10:06:00.938Z,57.7
2017-07-07T10:07:03.009Z,57.8
2017-07-07T10:08:05.075Z,57.6
2017-07-07T10:09:07.153Z,57.4
2017-07-07T10:10:09.219Z,57.4
2017-07-07T10:11:11.290Z,57.5
2017-07-07T10:12:13.370Z,57
2017-07-07T10:13:15.447Z,56.8
2017-07-07T10:14:17.520Z,56.9
2017-07-07T10:15:19.591Z,57.1
2017-07-07T10:16:21.675Z,57.5
2017-07-07T10:17:23.753Z,57.6
2017-07-07T10:18:25.827Z,57.5
2017-07-07T10:19:27.912Z,57.2
2017-07-07T10:20:29.995Z,56.9
2017-07-07T10:21:32.087Z,56.7
2017-07-07T10:22:34.159Z,56.7
2017-07-07T10:23:36.237Z,56.9
2017-07-07T10:24:38.320Z,57.1
2017-07-07T10:25:40.399Z,57.2
2017-07-07T10:26:42.487Z,57.2
2017-07-07T10:27:44.553Z,57
2017-07-07T10:28:46.636Z,56.9
2017-07-07T10:29:48.705Z,57
2017-07-07T10:30:50.791Z,57
2017-07-07T10:31:52.868Z,57.2
2017-07-07T10:32:54.961Z,57.1
2017-07-07T10:33:57.040Z,57.2
2017-07-07T10:34:59.121Z,57.2
2017-07-07T10:36:01.260Z,57.2
2017-07-07T10:37:03.350Z,57
2017-07-07T10:38:05.430Z,56.8
2017-07-07T10:39:07.502Z,56.4
2017-07-07T10:40:09.597Z,56
2017-07-07T10:41:11.676Z,55.8
2017-07-07T10:42:13.759Z,55.5
2017-07-07T10:43:16.196Z,55.4
2017-07-07T10:44:18.276Z,55.4
2017-07-07T10:45:20.365Z,55.5
2017-07-07T10:46:22.455Z,55.5
2017-07-07T10:47:24.526Z,55.6
2017-07-07T10:48:26.619Z,55.3
2017-07-07T10:49:28.700Z,55.1
2017-07-07T10:50:30.783Z,54.7
2017-07-07T10:51:32.869Z,54.4
2017-07-07T10:52:34.953Z,54.2
2017-07-07T10:53:37.033Z,54.2
2017-07-07T10:54:39.116Z,54.2
2017-07-07T10:55:41.200Z,54
2017-07-07T10:56:43.293Z,53.7
2017-07-07T10:57:45.716Z,53.6
2017-07-07T10:58:47.788Z,53.4
2017-07-07T10:59:49.868Z,53.2
2017-07-07T11:00:51.962Z,53.1
2017-07-07T11:01:54.040Z,53.1
2017-07-07T11:02:56.132Z,53.2
2017-07-07T11:03:58.215Z,53.2
2017-07-07T11:05:00.291Z,53.2
2017-07-07T11:06:02.376Z,53.2
2017-07-07T11:07:04.457Z,53
2017-07-07T11:08:06.549Z,52.8
2017-07-07T11:09:08.628Z,52.6
2017-07-07T11:10:10.710Z,52.4
2017-07-07T11:11:12.793Z,52.3
2017-07-07T11:12:14.874Z,52.4
2017-07-07T11:13:16.959Z,52.3
2017-07-07T11:14:19.043Z,52.3
2017-07-07T11:15:21.132Z,52.2
2017-07-07T11:16:23.213Z,52.1
2017-07-07T11:17:25.299Z,52.1
2017-07-07T11:18:27.378Z,52.1
2017-07-07T11:19:29.461Z,52
2017-07-07T11:20:31.547Z,52
2017-07-07T11:21:33.638Z,52
2017-07-07T11:22:35.718Z,52.1
2017-07-07T11:23:37.802Z,52.1
2017-07-07T11:24:39.881Z,52.1
2017-07-07T11:25:41.958Z,52.3
2017-07-07T11:26:44.042Z,52.4
2017-07-07T11:27:46.126Z,52.4
2017-07-07T11:28:48.210Z,52.4
2017-07-07T11:29:50.339Z,52.4
2017-07-07T11:30:52.366Z,52.2
2017-07-07T11:31:54.462Z,52.3
2017-07-07T11:32:56.538Z,52.2
2017-07-07T11:33:59.352Z,52.1
2017-07-07T11:35:01.779Z,52.1
2017-07-07T11:36:03.850Z,51.9
2017-07-07T11:37:05.942Z,51.9
2017-07-07T11:38:08.032Z,51.6
2017-07-07T11:39:10.115Z,51.6
2017-07-07T11:40:12.197Z,51.7
2017-07-07T11:41:14.282Z,51.7
2017-07-07T11:42:16.723Z,51.7
2017-07-07T11:43:18.809Z,51.8
2017-07-07T11:44:20.893Z,51.8
2017-07-07T11:45:22.988Z,51.8
2017-07-07T11:46:25.078Z,51.6
2017-07-07T11:47:27.154Z,51.5
2017-07-07T11:48:29.613Z,51.5
2017-07-07T11:49:31.696Z,51.3
2017-07-07T11:50:33.773Z,51.2
2017-07-07T11:51:35.866Z,50.9
2017-07-07T11:52:37.959Z,50.6
2017-07-07T11:53:40.048Z,50.4
2017-07-07T11:54:42.139Z,50.3
2017-07-07T11:55:44.227Z,50.1
2017-07-07T11:56:46.310Z,50
2017-07-07T11:57:48.398Z,50
2017-07-07T11:58:50.480Z,50
2017-07-07T11:59:52.561Z,49.9
2017-07-07T12:00:54.647Z,49.8
2017-07-07T12:01:56.736Z,49.9
2017-07-07T12:02:58.816Z,50
2017-07-07T12:04:00.912Z,50
2017-07-07T12:05:02.997Z,50
2017-07-07T12:06:05.093Z,49.9
2017-07-07T12:07:07.179Z,49.9
2017-07-07T12:08:09.264Z,49.9
2017-07-07T12:09:11.716Z,49.8
2017-07-07T12:10:13.792Z,49.7
2017-07-07T12:11:15.882Z,49.7
2017-07-07T12:12:17.974Z,49.8
2017-07-07T12:13:20.054Z,49.8
2017-07-07T12:14:22.149Z,49.7
2017-07-07T12:15:24.242Z,49.8
2017-07-07T12:16:26.320Z,49.8
2017-07-07T12:17:28.407Z,49.7
2017-07-07T12:18:30.825Z,49.7
2017-07-07T12:19:32.908Z,49.7
2017-07-07T12:20:34.994Z,49.7
2017-07-07T12:21:37.084Z,49.8
2017-07-07T12:22:39.163Z,49.8
2017-07-07T12:23:41.257Z,49.9
2017-07-07T12:24:43.331Z,50.1
2017-07-07T12:25:45.416Z,50.1
2017-07-07T12:26:47.504Z,50.3
2017-07-07T12:27:49.581Z,50.4
2017-07-07T12:28:51.676Z,50.4
2017-07-07T12:29:53.764Z,50.5
2017-07-07T12:30:55.830Z,50.5
2017-07-07T12:31:57.916Z,50.5
2017-07-07T12:33:00.009Z,50.6
2017-07-07T12:34:02.087Z,50.7
2017-07-07T12:35:04.171Z,50.7
2017-07-07T12:36:06.264Z,50.7
2017-07-07T12:37:08.354Z,50.7
2017-07-07T12:38:10.437Z,50.7
2017-07-07T12:39:12.524Z,50.7
2017-07-07T12:40:14.610Z,50.8
2017-07-07T12:41:16.706Z,50.7
2017-07-07T12:42:18.782Z,50.8
2017-07-07T12:43:20.872Z,50.8
2017-07-07T12:44:22.941Z,50.9
2017-07-07T12:45:25.024Z,50.9
2017-07-07T12:46:27.097Z,51
2017-07-07T12:47:29.186Z,51.1
2017-07-07T12:48:31.274Z,51.1
2017-07-07T12:49:33.352Z,51.2
2017-07-07T12:50:35.443Z,51.2
2017-07-07T12:51:37.529Z,51.2
2017-07-07T12:52:39.606Z,51.2
2017-07-07T12:53:41.689Z,51.1
2017-07-07T12:54:43.778Z,51
2017-07-07T12:55:45.854Z,50.9
2017-07-07T12:56:47.930Z,50.9
2017-07-07T12:57:50.026Z,50.9
2017-07-07T12:58:52.108Z,50.9
2017-07-07T12:59:54.191Z,50.9
2017-07-07T13:00:56.274Z,50.8
2017-07-07T13:01:58.363Z,50.9
2017-07-07T13:03:00.444Z,50.9
2017-07-07T13:04:02.518Z,50.9
2017-07-07T13:05:04.606Z,50.8
2017-07-07T13:06:06.690Z,50.8
2017-07-07T13:07:08.785Z,50.9
2017-07-07T13:08:10.855Z,50.9
2017-07-07T13:09:12.933Z,50.9
2017-07-07T13:10:15.023Z,50.8
2017-07-07T13:11:17.098Z,50.8
2017-07-07T13:12:19.187Z,50.7
2017-07-07T13:13:21.271Z,50.6
2017-07-07T13:14:23.348Z,50.6
2017-07-07T13:15:25.432Z,50.5
2017-07-07T13:16:27.514Z,50.4
2017-07-07T13:17:29.605Z,50.4
2017-07-07T13:18:31.685Z,50.4
2017-07-07T13:19:33.767Z,50.3
2017-07-07T13:20:35.855Z,50.3
2017-07-07T13:21:37.930Z,50.3
2017-07-07T13:22:40.018Z,50.3
2017-07-07T13:23:42.097Z,50.4
2017-07-07T13:24:44.189Z,50.3
2017-07-07T13:25:46.278Z,50.2
2017-07-07T13:26:48.351Z,50.1
2017-07-07T13:27:50.435Z,50.1
2017-07-07T13:28:52.512Z,50
2017-07-07T13:29:54.602Z,50.1
2017-07-07T13:30:56.680Z,49.9
2017-07-07T13:31:58.759Z,49.7
2017-07-07T13:33:00.845Z,49.6
2017-07-07T13:34:02.936Z,49.3
2017-07-07T13:35:05.019Z,49.2
2017-07-07T13:36:07.110Z,48.9
2017-07-07T13:37:09.182Z,48.7
2017-07-07T13:38:11.273Z,48.4
2017-07-07T13:39:13.353Z,48.2
2017-07-07T13:40:15.433Z,48.1
2017-07-07T13:41:17.519Z,48
2017-07-07T13:42:19.608Z,47.9
2017-07-07T13:43:21.683Z,47.7
2017-07-07T13:44:23.764Z,47.6
2017-07-07T13:45:25.848Z,47.6
2017-07-07T13:46:27.936Z,47.3
2017-07-07T13:47:30.029Z,47.1
2017-07-07T13:48:32.114Z,46.8
2017-07-07T13:49:34.214Z,46.7
2017-07-07T13:50:36.303Z,46.4
2017-07-07T13:51:38.380Z,46.4
2017-07-07T13:52:41.167Z,46.1
2017-07-07T13:53:43.263Z,46.1